sensor_id;sensor_type;location;lat;lon;timestamp;temperature;humidity
11538;DHT22;50159;49.426;11.182;2024-02-26T00:01:44;2.30;99.90
11538;DHT22;50159;49.426;11.182;2024-02-26T00:04:11;2.30;99.90
11538;DHT22;50159;49.426;11.182;2024-02-26T00:06:38;2.30;99.90
11538;DHT22;50159;49.426;11.182;2024-02-26T00:09:08;2.30;99.90
11538;DHT22;50159;49.426;11.182;2024-02-26T00:11:35;2.30;99.90
11538;DHT22;50159;49.426;11.182;2024-02-26T00:14:02;2.30;99.90
11538;DHT22;50159;49.426;11.182;2024-02-26T00:16:29;2.30;99.90
11538;DHT22;50159;49.426;11.182;2024-02-26T00:18:56;2.30;99.90
11538;DHT22;50159;49.426;11.182;2024-02-26T00:21:23;2.30;99.90
11538;DHT22;50159;49.426;11.182;2024-02-26T00:23:49;2.30;99.90
11538;DHT22;50159;49.426;11.182;2024-02-26T00:26:17;2.40;99.90
11538;DHT22;50159;49.426;11.182;2024-02-26T00:28:43;2.40;99.90
11538;DHT22;50159;49.426;11.182;2024-02-26T00:31:10;2.40;99.90
11538;DHT22;50159;49.426;11.182;2024-02-26T00:33:38;2.40;99.90
11538;DHT22;50159;49.426;11.182;2024-02-26T00:36:05;2.40;99.90
11538;DHT22;50159;49.426;11.182;2024-02-26T00:38:32;2.40;99.90
11538;DHT22;50159;49.426;11.182;2024-02-26T00:40:58;2.30;99.90
11538;DHT22;50159;49.426;11.182;2024-02-26T00:43:25;2.30;99.90
11538;DHT22;50159;49.426;11.182;2024-02-26T00:45:52;2.30;99.90
11538;DHT22;50159;49.426;11.182;2024-02-26T00:48:19;2.20;99.90
11538;DHT22;50159;49.426;11.182;2024-02-26T00:50:45;2.20;99.90
11538;DHT22;50159;49.426;11.182;2024-02-26T00:53:12;2.20;99.90
11538;DHT22;50159;49.426;11.182;2024-02-26T00:55:39;2.20;99.90
11538;DHT22;50159;49.426;11.182;2024-02-26T00:58:05;2.20;99.90
11538;DHT22;50159;49.426;11.182;2024-02-26T01:00:32;2.10;99.90
11538;DHT22;50159;49.426;11.182;2024-02-26T01:02:59;2.20;99.90
11538;DHT22;50159;49.426;11.182;2024-02-26T01:05:26;2.10;99.90
11538;DHT22;50159;49.426;11.182;2024-02-26T01:07:53;2.10;99.90
11538;DHT22;50159;49.426;11.182;2024-02-26T01:10:20;2.10;99.90
11538;DHT22;50159;49.426;11.182;2024-02-26T01:12:46;2.10;99.90
11538;DHT22;50159;49.426;11.182;2024-02-26T01:15:16;2.10;99.90
11538;DHT22;50159;49.426;11.182;2024-02-26T01:17:45;2.10;99.90
11538;DHT22;50159;49.426;11.182;2024-02-26T01:20:12;2.10;99.90
11538;DHT22;50159;49.426;11.182;2024-02-26T01:22:39;2.10;99.90
11538;DHT22;50159;49.426;11.182;2024-02-26T01:25:07;2.10;99.90
11538;DHT22;50159;49.426;11.182;2024-02-26T01:27:34;2.10;99.90
11538;DHT22;50159;49.426;11.182;2024-02-26T01:30:01;2.20;99.90
11538;DHT22;50159;49.426;11.182;2024-02-26T01:32:29;2.20;99.90
11538;DHT22;50159;49.426;11.182;2024-02-26T01:34:56;2.20;99.90
11538;DHT22;50159;49.426;11.182;2024-02-26T01:37:23;2.20;99.90
11538;DHT22;50159;49.426;11.182;2024-02-26T01:39:50;2.10;99.90
11538;DHT22;50159;49.426;11.182;2024-02-26T01:42:16;2.10;99.90
11538;DHT22;50159;49.426;11.182;2024-02-26T01:44:43;2.10;99.90
11538;DHT22;50159;49.426;11.182;2024-02-26T01:47:10;2.10;99.90
11538;DHT22;50159;49.426;11.182;2024-02-26T01:49:37;2.00;99.90
11538;DHT22;50159;49.426;11.182;2024-02-26T01:52:06;2.00;99.90
11538;DHT22;50159;49.426;11.182;2024-02-26T01:54:36;2.00;99.90
11538;DHT22;50159;49.426;11.182;2024-02-26T01:57:06;1.90;99.90
11538;DHT22;50159;49.426;11.182;2024-02-26T01:59:34;1.90;99.90
11538;DHT22;50159;49.426;11.182;2024-02-26T02:02:01;1.90;99.90
11538;DHT22;50159;49.426;11.182;2024-02-26T02:04:29;1.90;99.90
11538;DHT22;50159;49.426;11.182;2024-02-26T02:06:57;1.90;99.90
11538;DHT22;50159;49.426;11.182;2024-02-26T02:09:24;1.90;99.90
11538;DHT22;50159;49.426;11.182;2024-02-26T02:11:51;1.90;99.90
11538;DHT22;50159;49.426;11.182;2024-02-26T02:14:18;1.90;99.90
11538;DHT22;50159;49.426;11.182;2024-02-26T02:16:45;2.00;99.90
11538;DHT22;50159;49.426;11.182;2024-02-26T02:19:12;2.00;99.90
11538;DHT22;50159;49.426;11.182;2024-02-26T02:21:39;2.00;99.90
11538;DHT22;50159;49.426;11.182;2024-02-26T02:24:06;2.00;99.90
11538;DHT22;50159;49.426;11.182;2024-02-26T02:26:32;2.10;99.90
11538;DHT22;50159;49.426;11.182;2024-02-26T02:28:59;2.10;99.90
11538;DHT22;50159;49.426;11.182;2024-02-26T02:31:26;2.20;99.90
11538;DHT22;50159;49.426;11.182;2024-02-26T02:33:53;2.30;99.90
11538;DHT22;50159;49.426;11.182;2024-02-26T02:36:20;2.40;99.90
11538;DHT22;50159;49.426;11.182;2024-02-26T02:38:49;2.50;99.90
11538;DHT22;50159;49.426;11.182;2024-02-26T02:41:19;2.50;99.90
11538;DHT22;50159;49.426;11.182;2024-02-26T02:43:46;2.60;99.90
11538;DHT22;50159;49.426;11.182;2024-02-26T02:46:13;2.70;99.90
11538;DHT22;50159;49.426;11.182;2024-02-26T02:48:41;2.80;99.90
11538;DHT22;50159;49.426;11.182;2024-02-26T02:51:08;2.90;99.90
11538;DHT22;50159;49.426;11.182;2024-02-26T02:53:35;3.00;99.90
11538;DHT22;50159;49.426;11.182;2024-02-26T02:56:01;3.00;99.90
11538;DHT22;50159;49.426;11.182;2024-02-26T02:58:28;3.00;99.90
11538;DHT22;50159;49.426;11.182;2024-02-26T03:00:55;3.00;99.90
11538;DHT22;50159;49.426;11.182;2024-02-26T03:03:22;3.00;99.90
11538;DHT22;50159;49.426;11.182;2024-02-26T03:05:50;2.90;99.90
11538;DHT22;50159;49.426;11.182;2024-02-26T03:08:17;2.80;99.90
11538;DHT22;50159;49.426;11.182;2024-02-26T03:10:45;2.80;99.90
11538;DHT22;50159;49.426;11.182;2024-02-26T03:13:12;2.80;99.90
11538;DHT22;50159;49.426;11.182;2024-02-26T03:15:39;2.70;99.90
11538;DHT22;50159;49.426;11.182;2024-02-26T03:18:05;2.70;99.90
11538;DHT22;50159;49.426;11.182;2024-02-26T03:20:32;2.70;99.90
11538;DHT22;50159;49.426;11.182;2024-02-26T03:22:59;2.70;99.90
11538;DHT22;50159;49.426;11.182;2024-02-26T03:25:26;2.70;99.90
11538;DHT22;50159;49.426;11.182;2024-02-26T03:27:52;2.80;99.90
11538;DHT22;50159;49.426;11.182;2024-02-26T03:30:19;2.80;99.90
11538;DHT22;50159;49.426;11.182;2024-02-26T03:32:45;2.80;99.90
11538;DHT22;50159;49.426;11.182;2024-02-26T03:35:13;2.80;99.90
11538;DHT22;50159;49.426;11.182;2024-02-26T03:37:40;2.80;99.90
11538;DHT22;50159;49.426;11.182;2024-02-26T03:40:07;2.90;99.90
11538;DHT22;50159;49.426;11.182;2024-02-26T03:42:33;2.80;99.90
11538;DHT22;50159;49.426;11.182;2024-02-26T03:45:00;2.80;99.90
11538;DHT22;50159;49.426;11.182;2024-02-26T03:47:27;2.80;99.90
11538;DHT22;50159;49.426;11.182;2024-02-26T03:49:53;2.80;99.90
11538;DHT22;50159;49.426;11.182;2024-02-26T03:52:20;2.80;99.90
11538;DHT22;50159;49.426;11.182;2024-02-26T03:54:46;2.70;99.90
11538;DHT22;50159;49.426;11.182;2024-02-26T03:57:13;2.70;99.90
11538;DHT22;50159;49.426;11.182;2024-02-26T03:59:40;2.70;99.90
11538;DHT22;50159;49.426;11.182;2024-02-26T04:02:06;2.70;99.90
11538;DHT22;50159;49.426;11.182;2024-02-26T04:04:36;2.70;99.90
11538;DHT22;50159;49.426;11.182;2024-02-26T04:07:02;2.70;99.90
11538;DHT22;50159;49.426;11.182;2024-02-26T04:09:31;2.60;99.90
11538;DHT22;50159;49.426;11.182;2024-02-26T04:11:57;2.60;99.90
11538;DHT22;50159;49.426;11.182;2024-02-26T04:14:24;2.60;99.90
11538;DHT22;50159;49.426;11.182;2024-02-26T04:16:51;2.60;99.90
11538;DHT22;50159;49.426;11.182;2024-02-26T04:19:20;2.60;99.90
11538;DHT22;50159;49.426;11.182;2024-02-26T04:21:47;2.60;99.90
11538;DHT22;50159;49.426;11.182;2024-02-26T04:24:14;2.60;99.90
11538;DHT22;50159;49.426;11.182;2024-02-26T04:26:40;2.60;99.90
11538;DHT22;50159;49.426;11.182;2024-02-26T04:29:07;2.70;99.90
11538;DHT22;50159;49.426;11.182;2024-02-26T04:31:34;2.70;99.90
11538;DHT22;50159;49.426;11.182;2024-02-26T04:34:01;2.70;99.90
11538;DHT22;50159;49.426;11.182;2024-02-26T04:36:27;2.70;99.90
11538;DHT22;50159;49.426;11.182;2024-02-26T04:38:54;2.70;99.90
11538;DHT22;50159;49.426;11.182;2024-02-26T04:41:22;2.70;99.90
11538;DHT22;50159;49.426;11.182;2024-02-26T04:43:48;2.70;99.90
11538;DHT22;50159;49.426;11.182;2024-02-26T04:46:15;2.70;99.90
11538;DHT22;50159;49.426;11.182;2024-02-26T04:48:42;2.80;99.90
11538;DHT22;50159;49.426;11.182;2024-02-26T04:51:09;2.80;99.90
11538;DHT22;50159;49.426;11.182;2024-02-26T04:53:35;2.80;99.90
11538;DHT22;50159;49.426;11.182;2024-02-26T04:56:02;2.80;99.90
11538;DHT22;50159;49.426;11.182;2024-02-26T04:58:29;2.80;99.90
11538;DHT22;50159;49.426;11.182;2024-02-26T05:00:55;2.80;99.90
11538;DHT22;50159;49.426;11.182;2024-02-26T05:03:22;2.80;99.90
11538;DHT22;50159;49.426;11.182;2024-02-26T05:05:49;2.80;99.90
11538;DHT22;50159;49.426;11.182;2024-02-26T05:08:16;2.80;99.90
11538;DHT22;50159;49.426;11.182;2024-02-26T05:10:44;2.80;99.90
11538;DHT22;50159;49.426;11.182;2024-02-26T05:13:11;2.80;99.90
11538;DHT22;50159;49.426;11.182;2024-02-26T05:15:38;2.80;99.90
11538;DHT22;50159;49.426;11.182;2024-02-26T05:18:04;2.80;99.90
11538;DHT22;50159;49.426;11.182;2024-02-26T05:20:31;2.80;99.90
11538;DHT22;50159;49.426;11.182;2024-02-26T05:23:01;2.80;99.90
11538;DHT22;50159;49.426;11.182;2024-02-26T05:25:28;2.80;99.90
11538;DHT22;50159;49.426;11.182;2024-02-26T05:27:54;2.80;99.90
11538;DHT22;50159;49.426;11.182;2024-02-26T05:30:21;2.80;99.90
11538;DHT22;50159;49.426;11.182;2024-02-26T05:32:48;2.80;99.90
11538;DHT22;50159;49.426;11.182;2024-02-26T05:35:15;2.80;99.90
11538;DHT22;50159;49.426;11.182;2024-02-26T05:37:41;2.80;99.90
11538;DHT22;50159;49.426;11.182;2024-02-26T05:40:08;2.90;99.90
11538;DHT22;50159;49.426;11.182;2024-02-26T05:42:35;2.90;99.90
11538;DHT22;50159;49.426;11.182;2024-02-26T05:45:01;2.90;99.90
11538;DHT22;50159;49.426;11.182;2024-02-26T05:47:33;2.90;99.90
11538;DHT22;50159;49.426;11.182;2024-02-26T05:50:00;3.00;99.90
11538;DHT22;50159;49.426;11.182;2024-02-26T05:52:27;3.00;99.90
11538;DHT22;50159;49.426;11.182;2024-02-26T05:54:55;3.00;99.90
11538;DHT22;50159;49.426;11.182;2024-02-26T05:57:22;3.00;99.90
11538;DHT22;50159;49.426;11.182;2024-02-26T05:59:49;3.00;99.90
11538;DHT22;50159;49.426;11.182;2024-02-26T06:02:16;3.10;99.90
11538;DHT22;50159;49.426;11.182;2024-02-26T06:04:42;3.10;99.90
11538;DHT22;50159;49.426;11.182;2024-02-26T06:07:09;3.10;99.90
11538;DHT22;50159;49.426;11.182;2024-02-26T06:09:36;3.10;99.90
11538;DHT22;50159;49.426;11.182;2024-02-26T06:12:02;3.20;99.90
11538;DHT22;50159;49.426;11.182;2024-02-26T06:14:29;3.20;99.90
11538;DHT22;50159;49.426;11.182;2024-02-26T06:16:56;3.20;99.90
11538;DHT22;50159;49.426;11.182;2024-02-26T06:19:22;3.20;99.90
11538;DHT22;50159;49.426;11.182;2024-02-26T06:21:49;3.20;99.90
11538;DHT22;50159;49.426;11.182;2024-02-26T06:24:17;3.20;99.90
11538;DHT22;50159;49.426;11.182;2024-02-26T06:26:44;3.20;99.90
11538;DHT22;50159;49.426;11.182;2024-02-26T06:29:10;3.30;99.90
11538;DHT22;50159;49.426;11.182;2024-02-26T06:31:37;3.30;99.90
11538;DHT22;50159;49.426;11.182;2024-02-26T06:34:04;3.30;99.90
11538;DHT22;50159;49.426;11.182;2024-02-26T06:36:31;3.30;99.90
11538;DHT22;50159;49.426;11.182;2024-02-26T06:38:58;3.40;99.90
11538;DHT22;50159;49.426;11.182;2024-02-26T06:41:25;3.40;99.90
11538;DHT22;50159;49.426;11.182;2024-02-26T06:43:54;3.40;99.90
11538;DHT22;50159;49.426;11.182;2024-02-26T06:46:20;3.50;99.90
11538;DHT22;50159;49.426;11.182;2024-02-26T06:48:48;3.60;99.90
11538;DHT22;50159;49.426;11.182;2024-02-26T06:51:19;3.60;99.90
11538;DHT22;50159;49.426;11.182;2024-02-26T06:53:45;3.70;99.90
11538;DHT22;50159;49.426;11.182;2024-02-26T06:56:12;3.80;99.90
11538;DHT22;50159;49.426;11.182;2024-02-26T06:58:39;3.80;99.90
11538;DHT22;50159;49.426;11.182;2024-02-26T07:01:05;3.90;99.90
11538;DHT22;50159;49.426;11.182;2024-02-26T07:03:34;3.90;99.90
11538;DHT22;50159;49.426;11.182;2024-02-26T07:06:01;4.00;99.90
11538;DHT22;50159;49.426;11.182;2024-02-26T07:08:28;4.00;99.90
11538;DHT22;50159;49.426;11.182;2024-02-26T07:10:55;4.10;99.90
11538;DHT22;50159;49.426;11.182;2024-02-26T07:13:22;4.20;99.90
11538;DHT22;50159;49.426;11.182;2024-02-26T07:15:48;4.20;99.90
11538;DHT22;50159;49.426;11.182;2024-02-26T07:18:15;4.30;99.90
11538;DHT22;50159;49.426;11.182;2024-02-26T07:20:42;4.40;99.90
11538;DHT22;50159;49.426;11.182;2024-02-26T07:23:09;4.40;99.90
11538;DHT22;50159;49.426;11.182;2024-02-26T07:25:35;4.40;99.90
11538;DHT22;50159;49.426;11.182;2024-02-26T07:28:02;4.50;99.90
11538;DHT22;50159;49.426;11.182;2024-02-26T07:30:29;4.50;99.90
11538;DHT22;50159;49.426;11.182;2024-02-26T07:32:56;4.50;99.90
11538;DHT22;50159;49.426;11.182;2024-02-26T07:35:23;4.60;99.90
11538;DHT22;50159;49.426;11.182;2024-02-26T07:37:50;4.60;99.90
11538;DHT22;50159;49.426;11.182;2024-02-26T07:40:17;4.60;99.90
11538;DHT22;50159;49.426;11.182;2024-02-26T07:42:43;4.70;99.90
11538;DHT22;50159;49.426;11.182;2024-02-26T07:45:10;4.80;99.90
11538;DHT22;50159;49.426;11.182;2024-02-26T07:47:39;4.90;99.90
11538;DHT22;50159;49.426;11.182;2024-02-26T07:50:08;5.10;99.90
11538;DHT22;50159;49.426;11.182;2024-02-26T07:52:35;5.20;99.90
11538;DHT22;50159;49.426;11.182;2024-02-26T07:55:02;5.30;99.90
11538;DHT22;50159;49.426;11.182;2024-02-26T07:57:33;5.40;99.90
11538;DHT22;50159;49.426;11.182;2024-02-26T08:00:05;5.50;99.90
11538;DHT22;50159;49.426;11.182;2024-02-26T08:02:35;5.60;99.90
11538;DHT22;50159;49.426;11.182;2024-02-26T08:05:02;5.70;99.90
11538;DHT22;50159;49.426;11.182;2024-02-26T08:07:29;5.70;99.90
11538;DHT22;50159;49.426;11.182;2024-02-26T08:09:56;5.80;99.90
11538;DHT22;50159;49.426;11.182;2024-02-26T08:12:23;5.80;99.90
11538;DHT22;50159;49.426;11.182;2024-02-26T08:14:49;5.80;99.90
11538;DHT22;50159;49.426;11.182;2024-02-26T08:17:16;5.90;99.90
11538;DHT22;50159;49.426;11.182;2024-02-26T08:19:43;5.90;99.90
11538;DHT22;50159;49.426;11.182;2024-02-26T08:22:10;5.90;99.90
11538;DHT22;50159;49.426;11.182;2024-02-26T08:24:42;5.90;99.90
11538;DHT22;50159;49.426;11.182;2024-02-26T08:27:09;5.90;99.90
11538;DHT22;50159;49.426;11.182;2024-02-26T08:29:36;5.90;99.90
11538;DHT22;50159;49.426;11.182;2024-02-26T08:32:03;5.90;99.90
11538;DHT22;50159;49.426;11.182;2024-02-26T08:34:29;5.90;99.90
11538;DHT22;50159;49.426;11.182;2024-02-26T08:36:56;5.90;99.90
11538;DHT22;50159;49.426;11.182;2024-02-26T08:39:23;5.90;99.90
11538;DHT22;50159;49.426;11.182;2024-02-26T08:41:49;6.00;99.90
11538;DHT22;50159;49.426;11.182;2024-02-26T08:44:16;6.00;99.90
11538;DHT22;50159;49.426;11.182;2024-02-26T08:46:43;6.10;99.90
11538;DHT22;50159;49.426;11.182;2024-02-26T08:49:09;6.10;99.90
11538;DHT22;50159;49.426;11.182;2024-02-26T08:51:40;6.20;99.90
11538;DHT22;50159;49.426;11.182;2024-02-26T08:54:07;6.30;99.90
11538;DHT22;50159;49.426;11.182;2024-02-26T08:56:34;6.40;99.90
11538;DHT22;50159;49.426;11.182;2024-02-26T08:59:00;6.50;99.90
11538;DHT22;50159;49.426;11.182;2024-02-26T09:01:33;6.70;99.90
11538;DHT22;50159;49.426;11.182;2024-02-26T09:04:00;6.80;99.90
11538;DHT22;50159;49.426;11.182;2024-02-26T09:06:27;7.10;99.90
11538;DHT22;50159;49.426;11.182;2024-02-26T09:08:54;7.30;99.90
11538;DHT22;50159;49.426;11.182;2024-02-26T09:11:25;7.50;99.30
11538;DHT22;50159;49.426;11.182;2024-02-26T09:13:51;7.60;98.50
11538;DHT22;50159;49.426;11.182;2024-02-26T09:16:18;7.70;97.70
11538;DHT22;50159;49.426;11.182;2024-02-26T09:18:44;7.80;96.50
11538;DHT22;50159;49.426;11.182;2024-02-26T09:21:11;7.90;96.40
11538;DHT22;50159;49.426;11.182;2024-02-26T09:23:38;8.00;96.20
11538;DHT22;50159;49.426;11.182;2024-02-26T09:26:05;8.20;96.10
11538;DHT22;50159;49.426;11.182;2024-02-26T09:28:32;8.30;95.90
11538;DHT22;50159;49.426;11.182;2024-02-26T09:31:04;8.50;95.60
11538;DHT22;50159;49.426;11.182;2024-02-26T09:33:30;8.60;95.00
11538;DHT22;50159;49.426;11.182;2024-02-26T09:35:57;8.70;94.00
11538;DHT22;50159;49.426;11.182;2024-02-26T09:38:24;8.90;93.90
11538;DHT22;50159;49.426;11.182;2024-02-26T09:40:50;9.00;92.90
11538;DHT22;50159;49.426;11.182;2024-02-26T09:43:17;9.10;91.30
11538;DHT22;50159;49.426;11.182;2024-02-26T09:45:47;9.20;91.40
11538;DHT22;50159;49.426;11.182;2024-02-26T09:48:16;9.30;91.50
11538;DHT22;50159;49.426;11.182;2024-02-26T09:50:44;9.40;90.90
11538;DHT22;50159;49.426;11.182;2024-02-26T09:53:11;9.40;90.60
11538;DHT22;50159;49.426;11.182;2024-02-26T09:55:38;9.30;90.10
11538;DHT22;50159;49.426;11.182;2024-02-26T09:58:05;9.30;89.40
11538;DHT22;50159;49.426;11.182;2024-02-26T10:00:32;9.20;89.70
11538;DHT22;50159;49.426;11.182;2024-02-26T10:03:04;9.20;90.00
11538;DHT22;50159;49.426;11.182;2024-02-26T10:05:31;9.20;88.80
11538;DHT22;50159;49.426;11.182;2024-02-26T10:07:59;9.20;89.30
11538;DHT22;50159;49.426;11.182;2024-02-26T10:10:28;9.20;89.00
11538;DHT22;50159;49.426;11.182;2024-02-26T10:12:55;9.30;86.70
11538;DHT22;50159;49.426;11.182;2024-02-26T10:15:24;9.30;86.70
11538;DHT22;50159;49.426;11.182;2024-02-26T10:17:51;9.30;87.10
11538;DHT22;50159;49.426;11.182;2024-02-26T10:20:18;9.30;87.00
11538;DHT22;50159;49.426;11.182;2024-02-26T10:22:48;9.30;86.40
11538;DHT22;50159;49.426;11.182;2024-02-26T10:25:15;9.40;83.10
11538;DHT22;50159;49.426;11.182;2024-02-26T10:27:41;9.50;81.40
11538;DHT22;50159;49.426;11.182;2024-02-26T10:30:19;9.50;79.50
11538;DHT22;50159;49.426;11.182;2024-02-26T10:32:46;9.50;78.60
11538;DHT22;50159;49.426;11.182;2024-02-26T10:35:15;9.50;79.90
11538;DHT22;50159;49.426;11.182;2024-02-26T10:37:42;9.50;79.50
11538;DHT22;50159;49.426;11.182;2024-02-26T10:40:12;9.60;78.30
11538;DHT22;50159;49.426;11.182;2024-02-26T10:42:39;9.60;78.50
11538;DHT22;50159;49.426;11.182;2024-02-26T10:45:06;9.60;78.50
11538;DHT22;50159;49.426;11.182;2024-02-26T10:47:33;9.70;78.90
11538;DHT22;50159;49.426;11.182;2024-02-26T10:50:01;9.80;78.40
11538;DHT22;50159;49.426;11.182;2024-02-26T10:52:29;9.90;77.10
11538;DHT22;50159;49.426;11.182;2024-02-26T10:54:57;10.00;74.30
11538;DHT22;50159;49.426;11.182;2024-02-26T10:57:27;10.10;74.00
11538;DHT22;50159;49.426;11.182;2024-02-26T10:59:55;10.20;73.30
11538;DHT22;50159;49.426;11.182;2024-02-26T11:02:22;10.20;74.20
11538;DHT22;50159;49.426;11.182;2024-02-26T11:04:49;10.30;73.10
11538;DHT22;50159;49.426;11.182;2024-02-26T11:07:16;10.30;74.70
11538;DHT22;50159;49.426;11.182;2024-02-26T11:09:43;10.50;74.40
11538;DHT22;50159;49.426;11.182;2024-02-26T11:12:13;10.60;73.40
11538;DHT22;50159;49.426;11.182;2024-02-26T11:14:40;10.60;73.50
11538;DHT22;50159;49.426;11.182;2024-02-26T11:17:08;10.70;73.70
11538;DHT22;50159;49.426;11.182;2024-02-26T11:19:36;10.80;74.20
11538;DHT22;50159;49.426;11.182;2024-02-26T11:22:04;10.90;73.10
11538;DHT22;50159;49.426;11.182;2024-02-26T11:24:46;11.00;70.50
11538;DHT22;50159;49.426;11.182;2024-02-26T11:27:13;11.10;70.90
11538;DHT22;50159;49.426;11.182;2024-02-26T11:29:50;11.30;71.60
11538;DHT22;50159;49.426;11.182;2024-02-26T11:32:17;11.60;72.60
11538;DHT22;50159;49.426;11.182;2024-02-26T11:34:44;12.00;71.80
11538;DHT22;50159;49.426;11.182;2024-02-26T11:37:11;12.30;69.40
11538;DHT22;50159;49.426;11.182;2024-02-26T11:39:41;12.40;64.00
11538;DHT22;50159;49.426;11.182;2024-02-26T11:42:08;12.50;64.20
11538;DHT22;50159;49.426;11.182;2024-02-26T11:44:35;12.60;64.10
11538;DHT22;50159;49.426;11.182;2024-02-26T11:47:12;12.70;64.90
11538;DHT22;50159;49.426;11.182;2024-02-26T11:49:38;12.90;63.30
11538;DHT22;50159;49.426;11.182;2024-02-26T11:52:07;13.10;61.60
11538;DHT22;50159;49.426;11.182;2024-02-26T11:54:49;13.20;59.40
11538;DHT22;50159;49.426;11.182;2024-02-26T11:59:47;13.40;62.50
11538;DHT22;50159;49.426;11.182;2024-02-26T12:04:59;13.70;62.70
11538;DHT22;50159;49.426;11.182;2024-02-26T12:07:25;13.90;60.60
11538;DHT22;50159;49.426;11.182;2024-02-26T12:09:53;14.00;60.70
11538;DHT22;50159;49.426;11.182;2024-02-26T12:12:39;14.20;56.90
11538;DHT22;50159;49.426;11.182;2024-02-26T12:15:06;14.10;56.20
11538;DHT22;50159;49.426;11.182;2024-02-26T12:17:35;14.20;57.20
11538;DHT22;50159;49.426;11.182;2024-02-26T12:20:11;14.20;56.90
11538;DHT22;50159;49.426;11.182;2024-02-26T12:22:39;14.30;55.80
11538;DHT22;50159;49.426;11.182;2024-02-26T12:25:09;14.50;57.20
11538;DHT22;50159;49.426;11.182;2024-02-26T12:27:35;14.60;53.90
11538;DHT22;50159;49.426;11.182;2024-02-26T12:30:03;14.60;54.10
11538;DHT22;50159;49.426;11.182;2024-02-26T12:32:31;14.70;55.40
11538;DHT22;50159;49.426;11.182;2024-02-26T12:34:58;14.90;56.10
11538;DHT22;50159;49.426;11.182;2024-02-26T12:37:27;15.10;54.50
11538;DHT22;50159;49.426;11.182;2024-02-26T12:39:53;15.30;52.40
11538;DHT22;50159;49.426;11.182;2024-02-26T12:42:20;15.20;51.10
11538;DHT22;50159;49.426;11.182;2024-02-26T12:44:47;15.10;50.00
11538;DHT22;50159;49.426;11.182;2024-02-26T12:47:13;14.80;51.00
11538;DHT22;50159;49.426;11.182;2024-02-26T12:49:43;14.50;50.90
11538;DHT22;50159;49.426;11.182;2024-02-26T12:52:10;14.50;51.70
11538;DHT22;50159;49.426;11.182;2024-02-26T12:54:37;14.60;51.50
11538;DHT22;50159;49.426;11.182;2024-02-26T12:57:08;14.80;52.50
11538;DHT22;50159;49.426;11.182;2024-02-26T12:59:35;15.00;52.40
11538;DHT22;50159;49.426;11.182;2024-02-26T13:02:03;15.10;50.70
11538;DHT22;50159;49.426;11.182;2024-02-26T13:04:33;15.20;50.50
11538;DHT22;50159;49.426;11.182;2024-02-26T13:07:02;15.30;50.40
11538;DHT22;50159;49.426;11.182;2024-02-26T13:09:34;15.40;49.40
11538;DHT22;50159;49.426;11.182;2024-02-26T13:12:05;15.50;51.40
11538;DHT22;50159;49.426;11.182;2024-02-26T13:14:32;15.60;46.30
11538;DHT22;50159;49.426;11.182;2024-02-26T13:17:00;15.40;47.40
11538;DHT22;50159;49.426;11.182;2024-02-26T13:19:27;15.40;47.40
11538;DHT22;50159;49.426;11.182;2024-02-26T13:21:54;15.40;46.70
11538;DHT22;50159;49.426;11.182;2024-02-26T13:24:22;15.30;46.70
11538;DHT22;50159;49.426;11.182;2024-02-26T13:26:55;15.40;47.80
11538;DHT22;50159;49.426;11.182;2024-02-26T13:29:21;15.60;48.60
11538;DHT22;50159;49.426;11.182;2024-02-26T13:31:53;15.70;47.70
11538;DHT22;50159;49.426;11.182;2024-02-26T13:34:23;15.70;46.10
11538;DHT22;50159;49.426;11.182;2024-02-26T13:36:50;15.40;46.20
11538;DHT22;50159;49.426;11.182;2024-02-26T13:39:21;15.10;44.90
11538;DHT22;50159;49.426;11.182;2024-02-26T13:41:48;14.80;45.40
11538;DHT22;50159;49.426;11.182;2024-02-26T13:44:14;14.50;46.80
11538;DHT22;50159;49.426;11.182;2024-02-26T13:46:41;14.40;47.40
11538;DHT22;50159;49.426;11.182;2024-02-26T13:49:08;14.30;48.00
11538;DHT22;50159;49.426;11.182;2024-02-26T13:51:35;14.20;49.10
11538;DHT22;50159;49.426;11.182;2024-02-26T13:54:03;14.10;49.60
11538;DHT22;50159;49.426;11.182;2024-02-26T13:56:31;14.00;50.50
11538;DHT22;50159;49.426;11.182;2024-02-26T13:58:58;13.90;50.40
11538;DHT22;50159;49.426;11.182;2024-02-26T14:01:25;13.80;48.50
11538;DHT22;50159;49.426;11.182;2024-02-26T14:03:52;13.60;48.40
11538;DHT22;50159;49.426;11.182;2024-02-26T14:06:21;13.50;48.90
11538;DHT22;50159;49.426;11.182;2024-02-26T14:08:48;13.40;49.60
11538;DHT22;50159;49.426;11.182;2024-02-26T14:11:15;13.30;50.10
11538;DHT22;50159;49.426;11.182;2024-02-26T14:13:42;13.20;50.70
11538;DHT22;50159;49.426;11.182;2024-02-26T14:16:11;13.10;49.10
11538;DHT22;50159;49.426;11.182;2024-02-26T14:18:40;13.00;49.50
11538;DHT22;50159;49.426;11.182;2024-02-26T14:21:07;12.90;49.50
11538;DHT22;50159;49.426;11.182;2024-02-26T14:23:34;12.80;49.60
11538;DHT22;50159;49.426;11.182;2024-02-26T14:26:01;12.70;50.20
11538;DHT22;50159;49.426;11.182;2024-02-26T14:28:28;12.60;51.30
11538;DHT22;50159;49.426;11.182;2024-02-26T14:31:02;12.50;52.10
11538;DHT22;50159;49.426;11.182;2024-02-26T14:33:30;12.50;52.50
11538;DHT22;50159;49.426;11.182;2024-02-26T14:35:57;12.40;53.50
11538;DHT22;50159;49.426;11.182;2024-02-26T14:38:24;12.40;54.10
11538;DHT22;50159;49.426;11.182;2024-02-26T14:40:51;12.30;54.10
11538;DHT22;50159;49.426;11.182;2024-02-26T14:43:17;12.30;54.80
11538;DHT22;50159;49.426;11.182;2024-02-26T14:45:44;12.30;55.40
11538;DHT22;50159;49.426;11.182;2024-02-26T14:48:10;12.20;55.70
11538;DHT22;50159;49.426;11.182;2024-02-26T14:50:38;12.20;56.10
11538;DHT22;50159;49.426;11.182;2024-02-26T14:53:04;12.10;56.60
11538;DHT22;50159;49.426;11.182;2024-02-26T14:55:31;12.10;56.40
11538;DHT22;50159;49.426;11.182;2024-02-26T14:57:59;12.00;56.90
11538;DHT22;50159;49.426;11.182;2024-02-26T15:00:25;11.90;57.50
11538;DHT22;50159;49.426;11.182;2024-02-26T15:02:52;11.80;57.70
11538;DHT22;50159;49.426;11.182;2024-02-26T15:05:21;11.80;57.90
11538;DHT22;50159;49.426;11.182;2024-02-26T15:07:48;11.70;58.30
11538;DHT22;50159;49.426;11.182;2024-02-26T15:10:15;11.70;58.50
11538;DHT22;50159;49.426;11.182;2024-02-26T15:12:42;11.60;58.90
11538;DHT22;50159;49.426;11.182;2024-02-26T15:15:09;11.60;58.60
11538;DHT22;50159;49.426;11.182;2024-02-26T15:17:36;11.50;58.20
11538;DHT22;50159;49.426;11.182;2024-02-26T15:20:03;11.50;58.90
11538;DHT22;50159;49.426;11.182;2024-02-26T15:22:30;11.50;59.10
11538;DHT22;50159;49.426;11.182;2024-02-26T15:24:56;11.40;59.50
11538;DHT22;50159;49.426;11.182;2024-02-26T15:27:23;11.40;59.50
11538;DHT22;50159;49.426;11.182;2024-02-26T15:29:50;11.30;59.80
11538;DHT22;50159;49.426;11.182;2024-02-26T15:32:25;11.30;61.30
11538;DHT22;50159;49.426;11.182;2024-02-26T15:34:53;11.30;60.50